Time;durP1;ratioP1;P1;durP2;ratioP2;P2;SDS_P1;SDS_P2;PMS_P1;PMS_P2;Temp;Humidity;BMP_temperature;BMP_pressure;BME280_temperature;BME280_humidity;BME280_pressure;Samples;Min_cycle;Max_cycle;Signal;HPM_P1;HPM_P2
2023/06/26 00:01:07;;;;;;;9.23;8.32;;;28.20;57.20;;;;;;4018739;29;20060;-57
2023/06/26 00:03:49;;;;;;;10.60;9.55;;;28.20;57.10;;;;;;4018357;29;20056;-58
2023/06/26 00:06:29;;;;;;;10.07;9.20;;;28.20;57.10;;;;;;4018114;29;20151;-58
2023/06/26 00:09:12;;;;;;;;;;;28.20;57.10;;;;;;4007690;29;20053;-58
2023/06/26 00:11:53;;;;;;;10.88;9.88;;;28.10;57.10;;;;;;4018525;29;19960;-58
2023/06/26 00:14:34;;;;;;;9.30;8.48;;;28.10;57.20;;;;;;4018290;29;20076;-58
2023/06/26 00:17:16;;;;;;;;;;;28.10;57.20;;;;;;4018770;29;20060;-58
2023/06/26 00:19:57;;;;;;;10.57;9.48;;;28.10;57.30;;;;;;4018280;29;19935;-58
2023/06/26 00:22:40;;;;;;;10.98;9.90;;;28.10;58.10;;;;;;4018456;29;20060;-58
2023/06/26 00:25:21;;;;;;;10.80;9.80;;;28.10;57.30;;;;;;4018317;29;20073;-58
2023/06/26 00:28:03;;;;;;;10.95;9.85;;;28.10;57.30;;;;;;4017728;29;20064;-58
2023/06/26 00:30:43;;;;;;;13.25;10.60;;;28.00;57.20;;;;;;4018015;29;20053;-58
2023/06/26 00:33:25;;;;;;;11.30;10.07;;;28.00;57.30;;;;;;4018093;29;20508;-58
2023/06/26 00:36:06;;;;;;;11.38;10.27;;;28.00;57.20;;;;;;4006211;29;20075;-58
2023/06/26 00:38:47;;;;;;;10.20;9.20;;;28.00;57.20;;;;;;4002944;29;20057;-57
2023/06/26 00:41:28;;;;;;;11.52;10.32;;;28.00;58.00;;;;;;4003773;29;20061;-58
2023/06/26 00:44:10;;;;;;;11.40;10.30;;;28.00;57.30;;;;;;4006734;29;20101;-58
2023/06/26 00:46:50;;;;;;;12.35;11.20;;;28.00;57.30;;;;;;4006464;29;20425;-58
2023/06/26 00:49:33;;;;;;;11.48;10.48;;;28.00;57.30;;;;;;4006355;29;20061;-58
2023/06/26 00:52:14;;;;;;;10.73;9.80;;;28.00;57.30;;;;;;3995682;29;20500;-58
2023/06/26 00:54:56;;;;;;;11.18;10.18;;;27.90;57.20;;;;;;4017339;29;20063;-58
2023/06/26 00:57:37;;;;;;;11.48;10.48;;;27.90;57.20;;;;;;4017528;29;20184;-58
2023/06/26 01:00:19;;;;;;;12.05;10.95;;;27.90;57.30;;;;;;4006055;29;20069;-58
2023/06/26 01:03:00;;;;;;;12.43;11.23;;;27.90;57.20;;;;;;3999843;29;20528;-58
2023/06/26 01:05:45;;;;;;;10.85;9.82;;;27.90;57.30;;;;;;4018111;29;20063;-58
2023/06/26 01:08:28;;;;;;;11.27;10.27;;;27.90;57.30;;;;;;4016360;29;20060;-58
2023/06/26 01:11:08;;;;;;;12.18;10.98;;;27.90;57.20;;;;;;4018104;29;20064;-58
2023/06/26 01:13:50;;;;;;;12.15;10.95;;;27.90;57.30;;;;;;4017611;29;20060;-58
2023/06/26 01:16:33;;;;;;;11.70;10.60;;;27.90;57.30;;;;;;4016954;29;20129;-59
2023/06/26 01:19:24;;;;;;;12.15;10.93;;;27.80;57.30;;;;;;4017618;29;20053;-58
2023/06/26 01:30:46;;;;;;;11.73;10.63;;;27.80;57.30;;;;;;4170035;24;20050;-56
2023/06/26 01:33:26;;;;;;;12.02;10.93;;;27.80;57.50;;;;;;4013323;29;20064;-57
2023/06/26 01:36:08;;;;;;;12.20;10.93;;;27.70;57.40;;;;;;4027465;29;20513;-56
2023/06/26 01:38:49;;;;;;;12.18;11.00;;;27.80;57.40;;;;;;4032334;29;20052;-56
2023/06/26 01:41:30;;;;;;;;;;;27.80;57.40;;;;;;4028538;29;20052;-56
2023/06/26 01:44:19;;;;;;;11.70;10.68;;;27.70;57.50;;;;;;4032382;29;20008;-56
2023/06/26 01:47:03;;;;;;;12.98;11.68;;;27.70;57.50;;;;;;4024359;29;20052;-56
2023/06/26 01:49:49;;;;;;;11.15;10.15;;;27.70;57.50;;;;;;4032430;29;20410;-56
2023/06/26 01:52:38;;;;;;;11.43;10.43;;;27.70;57.50;;;;;;4013194;29;20071;-56
2023/06/26 01:55:26;;;;;;;11.80;10.73;;;27.70;57.50;;;;;;4016751;29;20133;-56
2023/06/26 01:58:07;;;;;;;12.43;10.57;;;27.70;57.50;;;;;;4009290;29;20132;-56
2023/06/26 02:00:49;;;;;;;10.82;9.82;;;27.70;57.60;;;;;;4015094;29;20092;-57
2023/06/26 02:03:31;;;;;;;11.20;10.02;;;27.70;57.60;;;;;;4017223;29;20056;-57
2023/06/26 02:06:13;;;;;;;12.30;11.15;;;27.70;57.70;;;;;;4017137;29;20084;-57
2023/06/26 02:08:56;;;;;;;10.98;9.88;;;27.60;57.60;;;;;;4016858;29;20057;-56
2023/06/26 02:11:37;;;;;;;11.82;10.63;;;27.70;57.70;;;;;;4016960;29;20099;-56
2023/06/26 02:14:18;;;;;;;11.30;10.30;;;27.70;57.70;;;;;;4011155;29;20105;-57
2023/06/26 02:17:00;;;;;;;;;;;27.60;57.60;;;;;;4009219;29;20511;-56
2023/06/26 02:19:47;;;;;;;11.35;10.25;;;27.60;57.70;;;;;;4016574;29;19931;-56
2023/06/26 02:22:28;;;;;;;11.73;10.73;;;27.60;57.90;;;;;;4016867;29;20056;-57
2023/06/26 02:25:10;;;;;;;11.48;10.38;;;27.60;57.80;;;;;;4016491;29;20052;-57
2023/06/26 02:27:51;;;;;;;10.95;9.95;;;27.60;57.80;;;;;;4015265;29;20056;-57
2023/06/26 02:30:33;;;;;;;12.18;10.68;;;27.60;58.50;;;;;;4015181;29;20056;-57
2023/06/26 02:33:14;;;;;;;11.68;10.68;;;27.60;57.90;;;;;;4016756;29;20056;-57
2023/06/26 02:35:56;;;;;;;10.63;9.65;;;27.50;57.80;;;;;;4015657;29;20199;-56
2023/06/26 02:38:37;;;;;;;10.98;9.82;;;27.50;57.90;;;;;;4016050;29;20052;-48
2023/06/26 02:41:18;;;;;;;12.13;10.27;;;27.60;57.90;;;;;;4016728;29;20190;-47
2023/06/26 02:43:59;;;;;;;10.95;9.77;;;27.50;57.90;;;;;;4008626;29;20051;-48
2023/06/26 02:46:40;;;;;;;11.18;10.18;;;27.50;58.00;;;;;;3999198;29;20637;-47
2023/06/26 02:49:22;;;;;;;10.93;9.70;;;27.50;58.10;;;;;;4000644;29;20065;-48
2023/06/26 02:52:05;;;;;;;9.80;9.00;;;27.50;58.10;;;;;;3993999;29;20061;-47
2023/06/26 02:54:46;;;;;;;12.50;10.68;;;27.50;58.10;;;;;;4000341;29;20644;-49
2023/06/26 02:57:27;;;;;;;10.43;9.40;;;27.50;58.20;;;;;;4015548;29;20417;-47
2023/06/26 03:00:11;;;;;;;10.13;9.23;;;27.50;58.10;;;;;;4009573;29;20056;-47
2023/06/26 03:02:58;;;;;;;10.80;9.90;;;27.50;58.20;;;;;;4008159;29;20113;-50
2023/06/26 03:05:39;;;;;;;12.15;10.23;;;27.50;58.20;;;;;;4012674;29;20134;-49
2023/06/26 03:08:21;;;;;;;10.40;9.50;;;27.50;58.20;;;;;;4016038;29;20060;-48
2023/06/26 03:11:02;;;;;;;10.20;9.20;;;27.50;58.30;;;;;;4008641;29;20487;-49
2023/06/26 03:13:43;;;;;;;11.40;10.30;;;27.40;58.20;;;;;;3998106;29;20057;-50
2023/06/26 03:16:24;;;;;;;11.55;10.48;;;27.40;58.20;;;;;;4007386;29;20064;-50
2023/06/26 03:19:05;;;;;;;10.82;9.82;;;27.40;58.30;;;;;;4001400;29;20052;-51
2023/06/26 03:22:01;;;;;;;11.02;10.13;;;27.40;58.30;;;;;;4007853;29;20581;-48
2023/06/26 03:24:44;;;;;;;;;;;27.40;58.30;;;;;;4015526;29;20068;-47
2023/06/26 03:27:26;;;;;;;11.57;10.57;;;27.40;58.40;;;;;;4015260;29;20060;-50
2023/06/26 03:30:08;;;;;;;11.38;10.18;;;27.40;58.50;;;;;;4015703;29;20061;-49
2023/06/26 03:32:51;;;;;;;10.32;9.43;;;27.40;58.50;;;;;;4014745;29;20457;-49
2023/06/26 03:35:32;;;;;;;10.75;9.88;;;27.40;58.50;;;;;;4014996;29;20133;-48
2023/06/26 03:38:13;;;;;;;10.85;9.75;;;27.30;58.40;;;;;;4010128;29;20134;-47
2023/06/26 03:40:57;;;;;;;10.90;9.90;;;27.30;58.40;;;;;;4015295;29;20826;-46
2023/06/26 03:43:38;;;;;;;10.50;9.60;;;27.30;58.40;;;;;;4018014;29;20076;-50
2023/06/26 03:46:35;;;;;;;10.23;9.18;;;27.30;58.40;;;;;;4000051;29;20207;-48
2023/06/26 03:49:16;;;;;;;;;;;27.30;58.40;;;;;;4014430;29;20064;-49
2023/06/26 03:51:57;;;;;;;10.00;9.02;;;27.30;58.50;;;;;;4003639;29;19931;-49
2023/06/26 03:54:38;;;;;;;9.85;9.05;;;27.30;58.50;;;;;;4006993;29;20064;-50
2023/06/26 03:57:20;;;;;;;10.40;9.38;;;27.20;58.40;;;;;;4018473;29;20084;-48
2023/06/26 04:00:05;;;;;;;10.52;9.48;;;27.20;58.40;;;;;;4010804;29;20109;-46
2023/06/26 04:02:55;;;;;;;9.90;8.90;;;27.30;58.50;;;;;;4018526;29;20056;-47
2023/06/26 04:05:36;;;;;;;10.20;9.30;;;27.30;58.60;;;;;;4014507;29;20715;-50
2023/06/26 04:08:18;;;;;;;10.45;9.45;;;27.20;58.50;;;;;;3997167;29;20567;-48
2023/06/26 04:10:59;;;;;;;9.88;8.90;;;27.20;58.50;;;;;;4010421;29;20060;-48
2023/06/26 04:13:42;;;;;;;10.57;9.60;;;27.20;58.50;;;;;;4017848;29;20186;-47
2023/06/26 04:16:25;;;;;;;9.73;8.88;;;27.20;58.60;;;;;;4018104;29;20158;-47
2023/06/26 04:19:05;;;;;;;9.88;8.80;;;27.20;58.60;;;;;;4017647;29;20421;-47
2023/06/26 04:21:46;;;;;;;;;;;27.20;58.70;;;;;;4018568;29;20573;-47
2023/06/26 04:24:27;;;;;;;;;;;27.20;58.80;;;;;;4015197;29;20291;-50
2023/06/26 04:27:09;;;;;;;9.95;9.05;;;27.20;59.00;;;;;;4018201;29;19930;-51
2023/06/26 04:29:51;;;;;;;10.52;9.52;;;27.20;59.00;;;;;;4015787;29;20232;-50
2023/06/26 04:32:32;;;;;;;10.82;9.73;;;27.20;59.00;;;;;;4016909;29;20077;-48
2023/06/26 04:35:13;;;;;;;;;;;27.20;59.10;;;;;;4017820;29;20055;-48
2023/06/26 04:37:54;;;;;;;13.30;10.55;;;27.20;59.10;;;;;;4017999;29;20064;-50
2023/06/26 04:40:35;;;;;;;;;;;27.20;59.20;;;;;;4018369;29;20113;-48
2023/06/26 04:43:16;;;;;;;10.18;9.18;;;27.20;59.30;;;;;;4010329;29;20385;-48
2023/06/26 04:45:58;;;;;;;;;;;27.20;59.40;;;;;;4003110;29;20504;-56
2023/06/26 04:48:40;;;;;;;9.65;8.82;;;27.20;59.50;;;;;;4002357;29;19936;-53
2023/06/26 04:51:21;;;;;;;8.90;8.00;;;27.10;59.40;;;;;;4014325;29;20064;-56
2023/06/26 04:54:02;;;;;;;9.13;8.25;;;27.20;59.50;;;;;;3994730;29;20049;-56
2023/06/26 04:56:46;;;;;;;9.30;8.48;;;27.20;59.60;;;;;;4002464;29;20611;-56
2023/06/26 04:59:28;;;;;;;9.40;8.30;;;27.20;59.80;;;;;;4002438;29;20052;-56
2023/06/26 05:02:11;;;;;;;;;;;27.20;59.90;;;;;;4016951;29;20060;-56
2023/06/26 05:04:52;;;;;;;8.88;7.32;;;27.20;59.90;;;;;;4017850;29;19935;-57
2023/06/26 05:07:33;;;;;;;;;;;27.10;60.10;;;;;;4018185;29;20060;-57
2023/06/26 05:10:14;;;;;;;7.40;6.70;;;27.10;60.30;;;;;;4011170;29;19934;-57
2023/06/26 05:12:55;;;;;;;10.63;7.82;;;27.10;60.50;;;;;;4017177;29;20076;-57
2023/06/26 05:15:36;;;;;;;;;;;27.00;60.50;;;;;;4018006;29;20415;-47
2023/06/26 05:18:18;;;;;;;9.63;7.40;;;27.00;60.80;;;;;;4011659;29;19939;-58
2023/06/26 05:21:00;;;;;;;8.65;7.63;;;27.00;61.20;;;;;;4014365;29;20060;-57
2023/06/26 05:23:44;;;;;;;8.65;7.13;;;27.00;62.20;;;;;;4005801;29;20057;-57
2023/06/26 05:26:26;;;;;;;7.60;6.70;;;27.00;61.60;;;;;;4030537;29;20113;-57
2023/06/26 05:29:07;;;;;;;13.63;7.22;;;27.00;61.60;;;;;;4026055;29;20104;-58
2023/06/26 05:31:50;;;;;;;10.15;7.25;;;26.90;61.80;;;;;;4017249;29;20070;-58
2023/06/26 05:34:34;;;;;;;12.10;8.15;;;26.90;61.90;;;;;;4018418;29;20136;-57
2023/06/26 05:37:19;;;;;;;10.68;7.63;;;26.90;62.00;;;;;;4018793;29;20186;-57
2023/06/26 05:40:01;;;;;;;9.82;8.15;;;26.90;62.20;;;;;;4017293;29;20060;-57
2023/06/26 05:42:42;;;;;;;12.98;8.50;;;26.90;62.30;;;;;;4016835;29;20141;-56
2023/06/26 05:45:23;;;;;;;14.05;8.57;;;26.90;62.50;;;;;;4009736;29;20060;-58
2023/06/26 05:48:05;;;;;;;17.38;10.02;;;26.80;62.80;;;;;;3994430;29;20065;-59
2023/06/26 05:50:48;;;;;;;13.95;10.23;;;26.80;63.00;;;;;;4008006;29;20531;-58
2023/06/26 05:53:30;;;;;;;13.68;8.55;;;26.80;63.40;;;;;;4016582;29;20052;-58
2023/06/26 05:56:12;;;;;;;14.68;8.45;;;26.70;63.70;;;;;;4004170;29;20179;-59
2023/06/26 05:58:54;;;;;;;16.15;9.10;;;26.70;64.10;;;;;;4002676;29;20134;-59
2023/06/26 06:01:35;;;;;;;13.85;7.57;;;26.70;64.50;;;;;;4004411;29;20061;-59
2023/06/26 06:04:16;;;;;;;12.80;6.30;;;26.70;64.70;;;;;;4001004;29;20064;-59
2023/06/26 06:06:59;;;;;;;16.58;6.65;;;26.70;65.00;;;;;;4016792;29;20064;-59
2023/06/26 06:09:40;;;;;;;13.25;6.20;;;26.70;65.10;;;;;;4021300;29;20056;-58
2023/06/26 06:12:21;;;;;;;;;;;26.70;65.30;;;;;;4016829;29;20166;-58
2023/06/26 06:15:02;;;;;;;7.00;5.25;;;26.60;65.20;;;;;;4016075;29;20084;-59
2023/06/26 06:17:43;;;;;;;8.65;4.53;;;26.60;65.30;;;;;;4014962;29;20105;-59
2023/06/26 06:20:24;;;;;;;7.22;4.15;;;26.60;65.10;;;;;;4016834;29;20053;-58
2023/06/26 06:23:06;;;;;;;8.90;4.32;;;26.60;65.40;;;;;;4001544;29;20057;-59
2023/06/26 06:25:47;;;;;;;10.38;4.43;;;26.50;65.40;;;;;;4013786;29;20083;-58
2023/06/26 06:28:28;;;;;;;;;;;26.50;65.50;;;;;;4011996;29;20068;-58
2023/06/26 06:31:09;;;;;;;10.50;4.20;;;26.60;65.40;;;;;;4000941;29;19931;-58
2023/06/26 06:33:50;;;;;;;11.70;3.85;;;26.60;65.30;;;;;;4002874;29;20063;-58
2023/06/26 06:36:31;;;;;;;7.63;3.65;;;26.60;65.00;;;;;;4008228;29;20069;-59
2023/06/26 06:39:14;;;;;;;;;;;26.60;65.00;;;;;;4001537;29;20062;-58
2023/06/26 06:41:55;;;;;;;6.40;3.42;;;26.60;65.20;;;;;;4001245;29;19935;-58
2023/06/26 06:44:36;;;;;;;11.77;3.92;;;26.60;65.90;;;;;;4009096;29;20059;-58
2023/06/26 06:47:16;;;;;;;13.50;3.90;;;26.70;65.00;;;;;;4001025;29;20140;-58
2023/06/26 06:49:57;;;;;;;;;;;26.70;65.00;;;;;;3990717;29;20409;-58
2023/06/26 06:52:40;;;;;;;8.93;3.50;;;26.70;64.60;;;;;;4009608;29;19936;-58
2023/06/26 06:55:22;;;;;;;8.85;3.78;;;26.80;64.30;;;;;;4007577;29;20134;-58
2023/06/26 06:58:03;;;;;;;8.50;3.17;;;26.80;63.80;;;;;;4018574;29;20060;-58
2023/06/26 07:00:45;;;;;;;6.90;3.22;;;26.80;63.70;;;;;;4016603;29;20190;-52
2023/06/26 07:03:27;;;;;;;8.55;3.15;;;26.80;63.40;;;;;;4016113;29;20064;-50
2023/06/26 07:06:08;;;;;;;8.32;2.50;;;26.90;63.60;;;;;;4016055;29;20068;-54
2023/06/26 07:08:49;;;;;;;10.77;3.28;;;26.90;63.30;;;;;;4015803;29;20052;-54
2023/06/26 07:11:31;;;;;;;7.65;3.17;;;26.90;63.00;;;;;;4015819;29;20204;-54
2023/06/26 07:14:12;;;;;;;6.47;2.92;;;27.00;62.60;;;;;;4016211;29;20579;-53
2023/06/26 07:16:53;;;;;;;5.10;3.17;;;27.00;62.00;;;;;;4017528;29;20056;-54
2023/06/26 07:19:34;;;;;;;6.22;2.88;;;27.10;61.50;;;;;;4019159;29;20061;-54
2023/06/26 07:22:15;;;;;;;5.63;2.38;;;27.10;61.20;;;;;;4019136;29;20072;-53
2023/06/26 07:24:56;;;;;;;10.10;2.92;;;27.10;60.30;;;;;;4018923;29;20100;-51
2023/06/26 07:27:39;;;;;;;9.20;2.83;;;27.20;59.90;;;;;;4018322;29;20072;-50
2023/06/26 07:30:21;;;;;;;4.85;2.25;;;27.20;59.00;;;;;;4013276;29;20060;-50
2023/06/26 07:33:02;;;;;;;4.15;1.98;;;27.20;59.30;;;;;;4018760;29;20052;-49
2023/06/26 07:35:43;;;;;;;5.28;2.35;;;27.20;58.50;;;;;;4018942;29;20129;-49
2023/06/26 07:38:23;;;;;;;4.55;2.33;;;27.30;58.40;;;;;;4003686;29;20189;-50
2023/06/26 07:41:04;;;;;;;;;;;27.30;57.90;;;;;;3997316;29;20702;-50
2023/06/26 07:43:46;;;;;;;5.22;2.17;;;27.30;58.10;;;;;;4017383;29;19994;-53
2023/06/26 07:46:27;;;;;;;5.28;2.08;;;27.30;57.90;;;;;;4016770;29;20060;-52
2023/06/26 07:49:08;;;;;;;4.70;2.03;;;27.30;57.90;;;;;;4012949;29;20071;-51
2023/06/26 07:51:50;;;;;;;4.97;2.03;;;27.40;58.20;;;;;;4010201;29;20181;-54
2023/06/26 07:54:30;;;;;;;;;;;27.30;58.20;;;;;;4015938;29;20057;-52
2023/06/26 07:57:12;;;;;;;3.38;1.92;;;27.30;58.50;;;;;;4012537;29;19931;-52
2023/06/26 07:59:55;;;;;;;4.38;1.52;;;27.30;57.60;;;;;;4018492;29;20575;-52
2023/06/26 08:02:38;;;;;;;5.35;1.92;;;27.30;58.20;;;;;;4018634;29;20056;-54
2023/06/26 08:05:19;;;;;;;3.42;1.80;;;27.20;57.30;;;;;;4018303;29;20068;-49
2023/06/26 08:08:01;;;;;;;5.90;1.70;;;27.20;57.40;;;;;;4017989;29;20064;-53
2023/06/26 08:10:43;;;;;;;3.67;1.90;;;27.20;57.10;;;;;;4017877;29;20140;-50
2023/06/26 08:13:24;;;;;;;3.85;1.70;;;27.10;57.00;;;;;;4017674;29;20067;-50
2023/06/26 08:16:06;;;;;;;3.00;1.85;;;27.10;57.00;;;;;;4008713;29;20060;-49
2023/06/26 08:18:47;;;;;;;3.60;1.63;;;27.10;56.80;;;;;;4009598;29;20163;-51
2023/06/26 08:21:28;;;;;;;2.33;1.40;;;27.10;56.80;;;;;;4018222;29;20060;-53
2023/06/26 08:24:09;;;;;;;;;;;27.10;57.50;;;;;;4018400;29;20061;-49
2023/06/26 08:26:49;;;;;;;4.05;1.60;;;27.00;56.80;;;;;;4017053;29;20252;-53
2023/06/26 08:29:30;;;;;;;;;;;27.10;57.00;;;;;;4017252;29;20105;-52
2023/06/26 08:32:12;;;;;;;3.63;1.77;;;27.10;56.80;;;;;;4017603;29;19932;-53
2023/06/26 08:34:53;;;;;;;4.85;1.80;;;27.10;56.50;;;;;;4001520;29;20318;-52
2023/06/26 08:37:34;;;;;;;2.83;1.60;;;27.10;56.20;;;;;;4002748;29;20068;-53
2023/06/26 08:40:18;;;;;;;3.92;1.55;;;27.00;56.40;;;;;;4000868;29;20494;-51
2023/06/26 08:42:59;;;;;;;4.00;1.83;;;27.00;56.50;;;;;;4017059;29;20587;-53
2023/06/26 08:45:40;;;;;;;8.52;2.00;;;27.10;56.50;;;;;;4017917;29;20056;-52
2023/06/26 08:48:23;;;;;;;2.53;1.55;;;27.10;56.30;;;;;;4012301;29;20512;-50
2023/06/26 08:51:10;;;;;;;4.10;1.80;;;27.10;56.30;;;;;;4018009;29;20528;-53
2023/06/26 08:53:56;;;;;;;6.40;1.73;;;27.10;56.00;;;;;;4017186;29;20060;-50
2023/06/26 08:56:42;;;;;;;1.92;1.73;;;27.10;56.00;;;;;;4017378;29;20081;-55
2023/06/26 08:59:23;;;;;;;4.15;1.88;;;27.10;55.70;;;;;;4017791;29;20412;-54
2023/06/26 09:02:05;;;;;;;5.40;1.80;;;27.10;55.90;;;;;;4010955;29;20071;-49
2023/06/26 09:04:48;;;;;;;3.75;2.25;;;27.10;55.70;;;;;;4005373;29;20049;-53
2023/06/26 09:07:30;;;;;;;4.22;1.80;;;27.10;55.40;;;;;;4014580;29;20497;-54
2023/06/26 09:10:11;;;;;;;2.20;1.85;;;27.10;55.40;;;;;;4017343;29;20052;-54
2023/06/26 09:12:56;;;;;;;3.25;2.08;;;27.10;55.40;;;;;;4016635;29;20137;-53
2023/06/26 09:15:43;;;;;;;2.67;1.52;;;27.20;55.50;;;;;;4011272;29;20072;-52
2023/06/26 09:18:24;;;;;;;5.18;2.00;;;27.20;55.40;;;;;;4017089;29;20113;-52
2023/06/26 09:21:10;;;;;;;2.10;1.90;;;27.20;55.00;;;;;;4004787;29;20721;-52
2023/06/26 09:23:54;;;;;;;4.22;1.98;;;27.10;54.90;;;;;;4001745;29;20565;-54
2023/06/26 09:26:36;;;;;;;6.25;1.88;;;27.10;55.00;;;;;;4001789;29;20359;-51
2023/06/26 09:29:19;;;;;;;3.90;1.85;;;27.20;55.20;;;;;;4011621;29;20519;-54
2023/06/26 09:32:00;;;;;;;4.22;2.10;;;27.10;55.20;;;;;;4001427;29;20064;-53
2023/06/26 09:34:44;;;;;;;5.32;1.92;;;27.20;55.20;;;;;;4001572;29;20500;-55
2023/06/26 09:37:27;;;;;;;3.83;2.00;;;27.20;55.20;;;;;;4001809;29;20056;-54
2023/06/26 09:40:09;;;;;;;4.13;1.80;;;27.20;55.10;;;;;;4001913;29;20123;-54
2023/06/26 09:42:51;;;;;;;2.72;1.83;;;27.20;55.10;;;;;;4016959;29;20397;-52
2023/06/26 09:45:33;;;;;;;4.07;2.00;;;27.20;54.90;;;;;;4017011;29;20056;-50
2023/06/26 09:48:17;;;;;;;2.80;1.80;;;27.20;54.30;;;;;;4016975;29;20048;-50
2023/06/26 09:51:01;;;;;;;3.25;1.80;;;27.20;54.60;;;;;;4016324;29;20132;-53
2023/06/26 09:53:54;;;;;;;2.47;1.80;;;27.20;54.60;;;;;;4016122;29;20109;-52
2023/06/26 09:56:35;;;;;;;4.00;2.10;;;27.20;54.30;;;;;;4016099;29;20056;-52
2023/06/26 09:59:17;;;;;;;5.10;2.13;;;27.20;54.20;;;;;;4016683;29;20064;-54
2023/06/26 10:02:00;;;;;;;3.78;2.20;;;27.20;54.10;;;;;;4016431;29;20060;-54
2023/06/26 10:04:41;;;;;;;2.08;1.88;;;27.10;54.00;;;;;;4013746;29;20548;-53
2023/06/26 10:07:23;;;;;;;3.22;2.00;;;27.20;54.20;;;;;;4016189;29;20393;-54
2023/06/26 10:10:08;;;;;;;6.55;2.10;;;27.20;54.10;;;;;;4016912;29;20056;-51
2023/06/26 10:12:52;;;;;;;7.22;2.53;;;27.20;54.10;;;;;;4016360;29;20060;-54
2023/06/26 10:15:34;;;;;;;2.35;1.98;;;27.30;53.40;;;;;;4016288;29;20061;-51
2023/06/26 10:18:18;;;;;;;4.57;2.50;;;27.20;53.10;;;;;;4016362;29;20064;-51
2023/06/26 10:21:02;;;;;;;3.00;1.73;;;27.30;53.00;;;;;;4002191;29;20101;-54
2023/06/26 10:23:45;;;;;;;3.65;2.40;;;27.20;52.80;;;;;;3998801;29;20060;-53
2023/06/26 10:26:30;;;;;;;2.55;1.83;;;27.20;52.80;;;;;;4005496;29;20065;-55
2023/06/26 10:29:12;;;;;;;3.45;2.00;;;27.20;53.60;;;;;;4001441;29;20530;-54
2023/06/26 10:31:58;;;;;;;3.33;2.20;;;27.20;52.90;;;;;;4006101;29;20064;-52
2023/06/26 10:34:41;;;;;;;3.55;2.40;;;27.20;52.70;;;;;;3998714;29;20052;-54
2023/06/26 10:37:41;;;;;;;4.15;1.92;;;27.20;52.20;;;;;;4001476;29;20056;-54
2023/06/26 10:40:28;;;;;;;3.42;2.20;;;27.20;52.40;;;;;;3999171;29;20053;-53
2023/06/26 10:43:12;;;;;;;4.05;1.85;;;27.20;52.10;;;;;;4000793;29;20053;-53
2023/06/26 10:45:55;;;;;;;3.72;2.22;;;27.20;52.00;;;;;;4015693;29;20131;-51
2023/06/26 10:48:58;;;;;;;2.35;1.90;;;27.20;51.70;;;;;;4016020;29;20052;-49
2023/06/26 10:51:46;;;;;;;1.63;1.50;;;27.20;51.50;;;;;;4013193;29;20556;-49
2023/06/26 10:54:31;;;;;;;2.35;1.85;;;27.20;51.80;;;;;;4020735;29;20060;-49
2023/06/26 10:57:12;;;;;;;3.42;2.10;;;27.20;51.10;;;;;;4022426;29;20167;-51
2023/06/26 11:00:14;;;;;;;3.25;2.15;;;27.20;50.80;;;;;;4026706;29;20048;-51
2023/06/26 11:02:55;;;;;;;2.50;2.30;;;27.10;50.60;;;;;;4028551;29;20198;-51
2023/06/26 11:05:37;;;;;;;2.85;2.25;;;27.10;51.20;;;;;;4003883;29;20118;-52
2023/06/26 11:08:20;;;;;;;3.67;2.08;;;27.10;51.20;;;;;;4004648;29;20069;-52
2023/06/26 11:11:01;;;;;;;4.32;2.50;;;27.10;51.10;;;;;;4016314;29;20065;-53
2023/06/26 11:13:43;;;;;;;5.70;2.40;;;27.10;50.70;;;;;;4016769;29;20413;-51
2023/06/26 11:16:27;;;;;;;2.47;2.28;;;27.10;50.90;;;;;;4017417;29;20056;-50
2023/06/26 11:19:08;;;;;;;2.92;2.10;;;27.10;51.00;;;;;;4018865;29;20290;-49
2023/06/26 11:21:48;;;;;;;2.83;1.98;;;27.20;51.20;;;;;;4019007;29;20064;-49
2023/06/26 11:24:31;;;;;;;4.32;2.20;;;27.20;51.20;;;;;;4019086;29;20453;-49
2023/06/26 11:27:11;;;;;;;3.55;1.65;;;27.20;51.10;;;;;;4004877;29;20421;-50
2023/06/26 11:29:53;;;;;;;3.28;1.65;;;27.20;51.30;;;;;;4003687;29;20061;-52
2023/06/26 11:32:35;;;;;;;1.95;1.77;;;27.20;51.10;;;;;;4003488;29;20138;-51
2023/06/26 11:35:29;;;;;;;4.13;1.60;;;27.20;50.90;;;;;;4003729;29;20049;-51
2023/06/26 11:38:10;;;;;;;2.85;1.52;;;27.20;50.30;;;;;;4011371;29;20049;-50
2023/06/26 11:40:51;;;;;;;2.55;1.45;;;27.20;50.30;;;;;;4017404;29;20449;-49
2023/06/26 11:43:34;;;;;;;4.88;1.70;;;27.30;50.60;;;;;;4018886;29;20425;-49
2023/06/26 11:46:17;;;;;;;4.82;2.05;;;27.20;50.60;;;;;;4003766;29;20057;-50
2023/06/26 11:49:00;;;;;;;7.93;1.70;;;27.20;50.60;;;;;;4003414;29;20254;-49
2023/06/26 11:51:41;;;;;;;6.72;2.60;;;27.20;50.80;;;;;;4014701;29;20065;-49
2023/06/26 11:54:26;;;;;;;3.00;1.52;;;27.20;50.40;;;;;;4017366;29;20076;-49
2023/06/26 11:57:07;;;;;;;2.55;1.52;;;27.20;50.20;;;;;;4011439;29;20069;-50
2023/06/26 11:59:52;;;;;;;3.10;1.63;;;27.20;50.60;;;;;;4018435;29;20229;-48
2023/06/26 12:02:33;;;;;;;5.80;1.48;;;27.20;50.50;;;;;;4013615;29;20056;-49
2023/06/26 12:05:16;;;;;;;;;;;27.20;50.70;;;;;;4017951;29;20052;-51
2023/06/26 12:07:59;;;;;;;6.60;1.73;;;27.20;50.70;;;;;;4018374;29;19939;-50
2023/06/26 12:10:40;;;;;;;3.90;1.40;;;27.20;50.40;;;;;;4016381;29;20057;-50
2023/06/26 12:13:21;;;;;;;;;;;27.20;50.20;;;;;;4018656;29;20060;-51
2023/06/26 12:16:02;;;;;;;4.85;1.52;;;27.20;50.40;;;;;;4007094;29;19936;-52
2023/06/26 12:18:43;;;;;;;4.03;1.60;;;27.20;50.30;;;;;;4013689;29;20133;-50
2023/06/26 12:21:46;;;;;;;3.80;1.02;;;27.20;50.10;;;;;;4016569;29;20179;-53
2023/06/26 12:24:27;;;;;;;2.83;1.20;;;27.10;49.60;;;;;;4017809;29;20076;-49
2023/06/26 12:27:12;;;;;;;2.58;1.20;;;27.10;50.10;;;;;;4011747;29;20055;-49
2023/06/26 12:29:54;;;;;;;7.05;1.45;;;27.10;50.30;;;;;;4021715;29;20533;-49
2023/06/26 12:32:36;;;;;;;7.32;1.90;;;27.10;50.20;;;;;;4018023;29;20052;-49
2023/06/26 12:35:18;;;;;;;3.80;1.30;;;27.10;50.10;;;;;;4033529;29;20052;-49
2023/06/26 12:38:01;;;;;;;7.95;1.77;;;27.20;50.10;;;;;;4024818;29;20112;-49
2023/06/26 12:40:46;;;;;;;2.05;1.63;;;27.10;49.60;;;;;;4016953;29;20440;-49
2023/06/26 12:43:27;;;;;;;4.75;1.42;;;27.10;49.50;;;;;;4006867;29;20060;-49
2023/06/26 12:46:08;;;;;;;;;;;27.10;49.80;;;;;;4008033;29;20052;-48
2023/06/26 12:48:51;;;;;;;3.17;1.20;;;27.20;50.10;;;;;;4013047;29;20760;-50
2023/06/26 12:51:33;;;;;;;3.65;1.75;;;27.10;50.00;;;;;;4005854;29;20520;-50
2023/06/26 12:54:18;;;;;;;5.82;1.95;;;27.10;49.50;;;;;;4018621;29;20072;-51
2023/06/26 12:57:00;;;;;;;4.32;2.00;;;27.10;49.30;;;;;;4009124;29;20060;-46
2023/06/26 12:59:41;;;;;;;2.38;1.33;;;27.20;49.50;;;;;;3998085;29;20056;-50
2023/06/26 13:02:22;;;;;;;4.50;1.40;;;27.10;49.40;;;;;;4030504;29;20130;-47
2023/06/26 13:05:04;;;;;;;2.58;1.10;;;27.20;49.30;;;;;;4021054;29;20060;-48
2023/06/26 13:07:44;;;;;;;2.55;1.15;;;27.10;48.30;;;;;;4017594;29;20393;-46
2023/06/26 13:10:28;;;;;;;3.95;1.38;;;27.10;48.40;;;;;;4012806;29;20515;-47
2023/06/26 13:13:11;;;;;;;4.65;1.35;;;27.10;48.50;;;;;;4017794;29;20492;-46
2023/06/26 13:15:52;;;;;;;4.55;1.30;;;27.10;48.50;;;;;;4015568;29;20413;-47
2023/06/26 13:18:33;;;;;;;4.18;2.08;;;27.10;48.40;;;;;;4016913;29;20060;-45
2023/06/26 13:21:14;;;;;;;4.18;1.77;;;27.10;48.40;;;;;;4006524;29;20064;-47
2023/06/26 13:23:55;;;;;;;3.08;1.42;;;27.10;48.20;;;;;;4015759;29;20081;-51
2023/06/26 13:26:38;;;;;;;3.83;1.50;;;27.10;48.00;;;;;;4016599;29;20056;-48
2023/06/26 13:29:19;;;;;;;5.72;1.38;;;27.10;48.00;;;;;;4016417;29;20066;-46
2023/06/26 13:32:00;;;;;;;2.67;1.27;;;27.00;48.20;;;;;;4016853;29;20056;-50
2023/06/26 13:34:41;;;;;;;1.92;1.30;;;27.00;48.20;;;;;;4015778;29;20048;-50
2023/06/26 13:37:22;;;;;;;3.17;0.88;;;27.00;47.90;;;;;;4001899;29;20093;-46
2023/06/26 13:40:03;;;;;;;2.90;1.50;;;27.00;48.60;;;;;;4008030;29;20442;-49
2023/06/26 13:42:46;;;;;;;2.88;1.30;;;27.10;48.20;;;;;;4031735;29;20052;-49
2023/06/26 13:45:27;;;;;;;7.50;1.55;;;27.00;48.70;;;;;;4031842;29;20679;-50
2023/06/26 13:48:11;;;;;;;3.30;1.77;;;27.10;48.40;;;;;;4031193;29;20052;-48
2023/06/26 13:50:52;;;;;;;;;;;27.00;48.40;;;;;;4001734;29;20188;-46
2023/06/26 13:53:34;;;;;;;6.68;1.85;;;27.00;48.60;;;;;;4001184;29;20053;-47
2023/06/26 13:56:15;;;;;;;;;;;27.00;48.90;;;;;;4005944;29;20183;-48
2023/06/26 13:58:58;;;;;;;;;;;27.00;49.20;;;;;;4005253;29;20034;-49
2023/06/26 14:01:42;;;;;;;5.95;1.85;;;27.00;49.30;;;;;;4003078;29;20080;-45
2023/06/26 14:04:23;;;;;;;1.30;1.20;;;26.90;49.50;;;;;;4015039;29;20193;-44
2023/06/26 14:07:04;;;;;;;;;;;26.90;49.80;;;;;;4009410;29;20050;-47
2023/06/26 14:09:45;;;;;;;5.70;1.77;;;26.90;49.90;;;;;;4005101;29;20494;-48
2023/06/26 14:12:27;;;;;;;5.53;1.60;;;26.90;49.90;;;;;;4002100;29;20516;-46
2023/06/26 14:15:10;;;;;;;3.65;1.58;;;26.80;50.10;;;;;;4016142;29;20060;-44
2023/06/26 14:17:52;;;;;;;2.75;1.30;;;26.90;50.30;;;;;;4005928;29;20409;-44